createdAt,value
2022-09-30T00:00:52.619Z,99.50
2022-09-30T00:03:19.566Z,99.60
2022-09-30T00:05:46.451Z,99.80
2022-09-30T00:08:13.180Z,99.80
2022-09-30T00:10:40.000Z,99.80
2022-09-30T00:13:06.746Z,99.70
2022-09-30T00:15:34.308Z,99.60
2022-09-30T00:18:00.996Z,99.70
2022-09-30T00:20:27.800Z,99.80
2022-09-30T00:22:54.599Z,99.90
2022-09-30T00:25:21.494Z,99.90
2022-09-30T00:27:48.343Z,99.90
2022-09-30T00:30:15.134Z,99.90
2022-09-30T00:32:41.886Z,99.90
2022-09-30T00:35:08.765Z,99.90
2022-09-30T00:37:35.547Z,99.90
2022-09-30T00:40:02.403Z,99.90
2022-09-30T00:42:30.685Z,99.90
2022-09-30T00:45:05.508Z,99.90
2022-09-30T00:47:44.641Z,99.90
2022-09-30T00:50:11.527Z,99.90
2022-09-30T00:52:38.654Z,99.90
2022-09-30T00:55:08.425Z,99.90
2022-09-30T00:57:36.319Z,99.90
2022-09-30T01:00:04.376Z,99.90
2022-09-30T01:02:31.187Z,99.90
2022-09-30T01:04:58.020Z,99.90
2022-09-30T01:07:24.906Z,99.90
2022-09-30T01:09:52.306Z,99.90
2022-09-30T01:12:20.994Z,99.90
2022-09-30T01:14:53.486Z,99.90
2022-09-30T01:17:20.738Z,99.90
2022-09-30T01:20:13.839Z,99.90
2022-09-30T01:22:44.613Z,99.90
2022-09-30T01:25:15.586Z,99.90
2022-09-30T01:27:48.642Z,99.90
2022-09-30T01:30:21.520Z,99.90
2022-09-30T01:33:00.571Z,99.90
2022-09-30T01:35:34.399Z,99.90
2022-09-30T01:38:15.291Z,99.90
2022-09-30T01:40:45.300Z,99.90
2022-09-30T01:43:27.352Z,99.90
2022-09-30T01:45:59.939Z,99.90
2022-09-30T01:48:36.114Z,99.90
2022-09-30T01:51:09.690Z,99.90
2022-09-30T01:53:39.648Z,99.90
2022-09-30T01:56:18.293Z,99.90
2022-09-30T01:58:57.714Z,99.90
2022-09-30T02:01:48.120Z,99.90
2022-09-30T02:04:19.785Z,99.90
2022-09-30T02:06:49.700Z,99.90
2022-09-30T02:09:21.423Z,99.90
2022-09-30T02:11:48.471Z,99.90
2022-09-30T02:17:15.647Z,99.90
2022-09-30T02:19:45.408Z,99.90
2022-09-30T02:22:14.948Z,99.90
2022-09-30T02:24:43.986Z,99.90
2022-09-30T02:27:15.585Z,99.90
2022-09-30T02:29:45.627Z,99.90
2022-09-30T02:32:15.380Z,99.90
2022-09-30T02:34:45.450Z,99.90
2022-09-30T02:37:24.737Z,99.90
2022-09-30T02:39:54.322Z,99.90
2022-09-30T02:42:24.246Z,99.90
2022-09-30T02:44:51.868Z,99.90
2022-09-30T02:47:31.259Z,99.90
2022-09-30T02:49:57.985Z,99.90
2022-09-30T02:52:24.630Z,99.90
2022-09-30T02:55:00.212Z,99.90
2022-09-30T02:57:36.019Z,99.90
2022-09-30T03:00:03.524Z,99.90
2022-09-30T03:02:30.876Z,99.90
2022-09-30T03:04:57.627Z,99.90
2022-09-30T03:07:24.555Z,99.90
2022-09-30T03:09:55.655Z,99.90
2022-09-30T03:12:28.305Z,99.90
2022-09-30T03:15:13.733Z,99.90
2022-09-30T03:17:59.060Z,99.90
2022-09-30T03:20:28.807Z,99.90
2022-09-30T03:23:04.536Z,99.90
2022-09-30T03:26:06.730Z,99.90
2022-09-30T03:28:36.629Z,99.90
2022-09-30T03:31:03.454Z,99.90
2022-09-30T03:33:32.907Z,99.90
2022-09-30T03:36:03.081Z,99.90
2022-09-30T03:38:29.833Z,99.90
2022-09-30T03:41:12.068Z,99.90
2022-09-30T03:43:43.866Z,99.90
2022-09-30T03:46:10.658Z,99.90
2022-09-30T03:48:38.299Z,99.90
2022-09-30T03:51:05.839Z,99.90
2022-09-30T03:53:37.428Z,99.90
2022-09-30T03:56:04.179Z,99.90
2022-09-30T03:58:30.935Z,99.90
2022-09-30T04:00:59.031Z,99.90
2022-09-30T04:03:27.809Z,99.90
2022-09-30T04:05:54.649Z,99.90
2022-09-30T04:08:22.237Z,99.90
2022-09-30T04:10:49.003Z,99.90
2022-09-30T04:13:15.682Z,99.90
2022-09-30T04:15:42.515Z,99.90
2022-09-30T04:18:09.287Z,99.90
2022-09-30T04:20:36.047Z,99.90
2022-09-30T04:23:02.999Z,99.90
2022-09-30T04:25:29.930Z,99.90
2022-09-30T04:27:56.746Z,99.90
2022-09-30T04:30:26.330Z,99.90
2022-09-30T04:32:54.077Z,99.90
2022-09-30T04:35:20.822Z,99.90
2022-09-30T04:37:47.756Z,99.90
2022-09-30T04:40:15.529Z,99.90
2022-09-30T04:42:43.084Z,99.90
2022-09-30T04:45:10.748Z,99.90
2022-09-30T04:47:37.554Z,99.90
2022-09-30T04:50:05.018Z,99.90
2022-09-30T04:52:31.811Z,99.90
2022-09-30T04:54:58.763Z,99.90
2022-09-30T04:57:25.510Z,99.80
2022-09-30T04:59:52.314Z,99.70
2022-09-30T05:02:19.287Z,99.90
2022-09-30T05:04:46.016Z,99.90
2022-09-30T05:07:12.783Z,99.90
2022-09-30T05:09:39.589Z,99.90
2022-09-30T05:12:06.485Z,99.90
2022-09-30T05:14:33.391Z,99.90
2022-09-30T05:17:00.939Z,99.60
2022-09-30T05:19:27.594Z,99.60
2022-09-30T05:21:54.681Z,99.70
2022-09-30T05:24:21.834Z,99.80
2022-09-30T05:26:48.648Z,99.80
2022-09-30T05:29:15.375Z,99.90
2022-09-30T05:31:42.723Z,99.90
2022-09-30T05:34:09.604Z,99.80
2022-09-30T05:36:36.382Z,99.50
2022-09-30T05:39:03.201Z,99.50
2022-09-30T05:41:29.983Z,99.50
2022-09-30T05:43:57.005Z,99.50
2022-09-30T05:46:23.902Z,99.90
2022-09-30T05:48:52.587Z,99.80
2022-09-30T05:51:19.354Z,99.80
2022-09-30T05:53:46.168Z,99.80
2022-09-30T05:56:13.391Z,99.90
2022-09-30T05:58:43.044Z,99.90
2022-09-30T06:01:14.555Z,99.90
2022-09-30T06:03:42.777Z,99.90
2022-09-30T06:06:10.104Z,99.90
2022-09-30T06:08:36.985Z,99.90
2022-09-30T06:11:10.954Z,99.90
2022-09-30T06:13:37.783Z,99.90
2022-09-30T06:16:05.184Z,99.90
2022-09-30T06:18:31.999Z,99.90
2022-09-30T06:20:59.375Z,99.90
2022-09-30T06:23:26.596Z,99.90
2022-09-30T06:25:53.808Z,99.90
2022-09-30T06:28:20.983Z,99.90
2022-09-30T06:30:48.013Z,99.90
2022-09-30T06:33:15.278Z,99.90
2022-09-30T06:35:42.867Z,99.90
2022-09-30T06:38:10.608Z,99.90
2022-09-30T06:40:37.401Z,99.90
2022-09-30T06:43:04.954Z,99.90
2022-09-30T06:45:33.420Z,99.90
2022-09-30T06:48:01.407Z,99.90
2022-09-30T06:50:29.142Z,99.90
2022-09-30T06:52:59.348Z,99.90
2022-09-30T06:55:27.275Z,99.90
2022-09-30T06:57:54.459Z,99.90
2022-09-30T07:00:21.752Z,99.90
2022-09-30T07:02:48.904Z,99.90
2022-09-30T07:05:16.646Z,99.90
2022-09-30T07:07:43.892Z,99.90
2022-09-30T07:10:10.855Z,99.90
2022-09-30T07:12:37.646Z,99.90
2022-09-30T07:15:04.603Z,99.90
2022-09-30T07:17:31.808Z,99.90
2022-09-30T07:19:59.490Z,99.90
2022-09-30T07:22:34.389Z,99.90
2022-09-30T07:25:04.422Z,99.90
2022-09-30T07:27:32.597Z,99.90
2022-09-30T07:30:24.531Z,99.80
2022-09-30T07:32:47.267Z,99.90
2022-09-30T07:35:14.550Z,99.90
2022-09-30T07:37:41.350Z,99.90
2022-09-30T07:40:08.430Z,99.90
2022-09-30T07:42:37.757Z,99.90
2022-09-30T07:45:04.849Z,99.90
2022-09-30T07:47:31.559Z,99.90
2022-09-30T07:49:58.380Z,99.90
2022-09-30T07:52:25.048Z,99.90
2022-09-30T07:54:51.827Z,99.60
2022-09-30T07:57:18.628Z,99.60
2022-09-30T07:59:45.499Z,99.50
2022-09-30T08:02:14.676Z,99.40
2022-09-30T08:04:43.928Z,99.40
2022-09-30T08:07:11.863Z,99.30
2022-09-30T08:09:38.790Z,99.10
2022-09-30T08:12:05.770Z,99.10
2022-09-30T08:14:32.827Z,99.00
2022-09-30T08:17:00.764Z,98.90
2022-09-30T08:19:28.769Z,98.70
2022-09-30T08:21:55.700Z,98.70
2022-09-30T08:24:23.085Z,98.80
2022-09-30T08:26:50.106Z,98.40
2022-09-30T08:29:20.568Z,98.20
2022-09-30T08:31:57.004Z,98.10
2022-09-30T08:34:23.933Z,98.00
2022-09-30T08:36:50.751Z,97.80
2022-09-30T08:39:17.552Z,97.70
2022-09-30T08:41:44.260Z,98.00
2022-09-30T08:44:26.380Z,98.00
2022-09-30T08:46:58.390Z,98.00
2022-09-30T08:49:25.518Z,98.00
2022-09-30T08:51:53.523Z,98.00
2022-09-30T08:54:24.461Z,98.20
2022-09-30T08:56:51.368Z,98.20
2022-09-30T08:59:38.511Z,98.00
2022-09-30T09:02:17.757Z,98.00
2022-09-30T09:04:45.195Z,97.90
2022-09-30T09:07:18.019Z,98.20
2022-09-30T09:10:03.477Z,98.50
2022-09-30T09:12:37.121Z,98.00
2022-09-30T09:15:03.814Z,97.80
2022-09-30T09:17:30.462Z,98.00
2022-09-30T09:19:57.245Z,97.90
2022-09-30T09:22:25.164Z,97.60
2022-09-30T09:24:53.463Z,97.50
2022-09-30T09:27:24.905Z,97.00
2022-09-30T09:30:09.503Z,96.50
2022-09-30T09:32:36.347Z,95.60
2022-09-30T09:35:16.913Z,95.40
2022-09-30T09:38:16.732Z,95.50
2022-09-30T09:41:02.652Z,95.00
2022-09-30T09:43:30.712Z,94.50
2022-09-30T09:46:02.925Z,94.70
2022-09-30T09:48:35.452Z,94.90
2022-09-30T09:51:22.801Z,95.10
2022-09-30T09:53:50.838Z,94.90
2022-09-30T09:56:19.614Z,94.40
2022-09-30T09:59:05.933Z,94.00
2022-09-30T10:01:34.208Z,93.90
2022-09-30T10:04:12.088Z,94.20
2022-09-30T10:07:00.209Z,93.60
2022-09-30T10:09:32.109Z,93.50
2022-09-30T10:12:07.832Z,93.70
2022-09-30T10:14:34.586Z,94.00
2022-09-30T10:17:02.317Z,94.20
2022-09-30T10:19:31.013Z,94.40
2022-09-30T10:22:09.933Z,94.30
2022-09-30T10:24:37.360Z,94.30
2022-09-30T10:27:04.113Z,93.60
2022-09-30T10:29:32.866Z,93.50
2022-09-30T10:32:06.851Z,93.40
2022-09-30T10:34:36.251Z,93.10
2022-09-30T10:37:08.452Z,92.40
2022-09-30T10:39:36.536Z,92.40
2022-09-30T10:42:07.299Z,92.50
2022-09-30T10:44:42.822Z,92.40
2022-09-30T10:47:14.027Z,92.70
2022-09-30T10:50:01.158Z,92.00
2022-09-30T10:52:29.459Z,92.00
2022-09-30T10:54:57.335Z,91.60
2022-09-30T10:57:34.603Z,91.40
2022-09-30T11:00:01.559Z,90.90
2022-09-30T11:02:28.251Z,90.50
2022-09-30T11:04:59.208Z,90.40
2022-09-30T11:07:29.956Z,90.40
2022-09-30T11:10:02.517Z,90.30
2022-09-30T11:12:48.707Z,90.10
2022-09-30T11:15:18.967Z,90.30
2022-09-30T11:17:48.683Z,90.00
2022-09-30T11:20:18.780Z,88.50
2022-09-30T11:22:45.623Z,88.30
2022-09-30T11:25:13.657Z,88.30
2022-09-30T11:28:05.270Z,89.00
2022-09-30T11:30:35.126Z,89.50
2022-09-30T11:33:20.343Z,90.00
2022-09-30T11:35:56.626Z,89.00
2022-09-30T11:38:29.296Z,86.50
2022-09-30T11:40:56.043Z,85.80
2022-09-30T11:43:22.751Z,85.80
2022-09-30T11:46:03.090Z,85.50
2022-09-30T11:48:35.705Z,85.70
2022-09-30T11:51:05.513Z,86.30
2022-09-30T11:53:38.460Z,88.20
2022-09-30T11:56:17.396Z,88.70
2022-09-30T11:58:47.536Z,87.70
2022-09-30T12:01:33.464Z,87.80
2022-09-30T12:04:06.550Z,87.40
2022-09-30T12:06:35.524Z,87.30
2022-09-30T12:09:04.975Z,86.90
2022-09-30T12:11:50.981Z,85.10
2022-09-30T12:14:25.319Z,85.00
2022-09-30T12:16:52.556Z,85.60
2022-09-30T12:19:25.281Z,85.80
2022-09-30T12:22:01.717Z,86.00
2022-09-30T12:24:31.514Z,86.00
2022-09-30T12:26:59.861Z,85.60
2022-09-30T12:29:52.050Z,86.00
2022-09-30T12:32:37.865Z,86.00
2022-09-30T12:35:04.691Z,86.10
2022-09-30T12:37:34.291Z,85.90
2022-09-30T12:40:04.167Z,85.50
2022-09-30T12:42:46.084Z,85.70
2022-09-30T12:45:18.934Z,87.00
2022-09-30T12:47:48.588Z,87.10
2022-09-30T12:50:21.545Z,87.00
2022-09-30T12:52:48.641Z,87.40
2022-09-30T12:55:25.427Z,87.30
2022-09-30T12:57:52.911Z,87.70
2022-09-30T13:00:34.724Z,88.10
2022-09-30T13:03:05.139Z,88.30
2022-09-30T13:05:32.106Z,87.90
2022-09-30T13:08:05.271Z,88.10
2022-09-30T13:10:33.383Z,88.30
2022-09-30T13:13:19.004Z,88.50
2022-09-30T13:15:46.423Z,88.90
2022-09-30T13:18:19.243Z,89.10
2022-09-30T13:20:59.213Z,89.20
2022-09-30T13:23:46.303Z,89.50
2022-09-30T13:26:32.190Z,89.90
2022-09-30T13:29:02.686Z,90.00
2022-09-30T13:32:01.962Z,90.00
2022-09-30T13:34:33.453Z,90.10
2022-09-30T13:37:01.440Z,90.10
2022-09-30T13:39:34.332Z,90.10
2022-09-30T13:42:04.019Z,89.80
2022-09-30T13:44:55.242Z,90.00
2022-09-30T13:47:28.224Z,90.30
2022-09-30T13:50:02.739Z,90.50
2022-09-30T13:52:31.373Z,91.00
2022-09-30T13:55:00.860Z,91.30
2022-09-30T13:57:31.915Z,91.90
2022-09-30T14:00:11.843Z,92.40
2022-09-30T14:02:47.571Z,92.80
2022-09-30T14:05:22.672Z,93.20
2022-09-30T14:08:12.612Z,93.20
2022-09-30T14:10:49.260Z,93.50
2022-09-30T14:13:22.058Z,93.60
2022-09-30T14:15:58.017Z,93.60
2022-09-30T14:18:30.861Z,93.70
2022-09-30T14:20:57.583Z,93.60
2022-09-30T14:23:24.734Z,93.70
2022-09-30T14:26:10.586Z,93.80
2022-09-30T14:28:42.712Z,94.00
2022-09-30T14:31:14.465Z,93.80
2022-09-30T14:33:43.210Z,93.50
2022-09-30T14:36:12.918Z,93.50
2022-09-30T14:38:42.640Z,93.80
2022-09-30T14:41:14.227Z,94.10
2022-09-30T14:43:43.067Z,94.40
2022-09-30T14:46:24.951Z,94.60
2022-09-30T14:48:53.006Z,94.80
2022-09-30T14:51:23.589Z,95.00
2022-09-30T14:54:03.441Z,95.30
2022-09-30T14:56:31.942Z,95.70
2022-09-30T14:59:00.834Z,96.00
2022-09-30T15:01:30.964Z,96.20
2022-09-30T15:04:04.174Z,96.40
2022-09-30T15:06:33.149Z,96.60
2022-09-30T15:09:01.426Z,97.00
2022-09-30T15:11:28.677Z,97.20
2022-09-30T15:13:59.679Z,97.20
2022-09-30T15:16:27.868Z,97.20
2022-09-30T15:18:55.889Z,97.20
2022-09-30T15:21:23.968Z,97.50
2022-09-30T15:23:52.379Z,98.30
2022-09-30T15:26:23.359Z,99.20
2022-09-30T15:28:50.414Z,99.00
2022-09-30T15:31:20.290Z,98.30
2022-09-30T15:33:47.088Z,98.00
2022-09-30T15:36:16.091Z,97.80
2022-09-30T15:38:47.562Z,98.10
2022-09-30T15:41:14.404Z,97.90
2022-09-30T15:43:44.231Z,97.70
2022-09-30T15:46:18.349Z,97.60
2022-09-30T15:48:45.410Z,97.80
2022-09-30T15:51:24.231Z,98.00
2022-09-30T15:53:51.545Z,98.20
2022-09-30T15:59:07.796Z,98.50
2022-09-30T16:01:48.483Z,98.70
2022-09-30T16:04:15.435Z,98.80
2022-09-30T16:06:45.415Z,99.10
2022-09-30T16:09:21.423Z,99.30
2022-09-30T16:12:06.190Z,99.50
2022-09-30T16:14:45.374Z,99.50
2022-09-30T16:17:22.970Z,99.50
2022-09-30T16:19:51.149Z,99.20
2022-09-30T16:22:34.832Z,99.00
2022-09-30T16:25:04.508Z,99.10
2022-09-30T16:27:32.766Z,99.70
2022-09-30T16:30:00.271Z,99.60
2022-09-30T16:32:27.770Z,99.40
2022-09-30T16:34:54.716Z,99.40
2022-09-30T16:37:21.581Z,99.40
2022-09-30T16:39:48.653Z,99.40
2022-09-30T16:42:15.894Z,99.50
2022-09-30T16:44:44.405Z,99.50
2022-09-30T16:47:15.329Z,99.80
2022-09-30T16:49:43.123Z,99.90
2022-09-30T16:52:11.219Z,99.90
2022-09-30T16:54:38.106Z,99.90
2022-09-30T16:57:04.832Z,99.90
2022-09-30T16:59:32.653Z,99.90
2022-09-30T17:02:00.485Z,99.90
2022-09-30T17:04:27.954Z,99.90
2022-09-30T17:06:56.860Z,99.90
2022-09-30T17:09:23.608Z,99.90
2022-09-30T17:11:53.184Z,99.90
2022-09-30T17:14:20.017Z,99.90
2022-09-30T17:16:46.778Z,99.90
2022-09-30T17:19:14.053Z,99.90
2022-09-30T17:21:41.151Z,99.90
2022-09-30T17:24:07.893Z,99.90
2022-09-30T17:26:34.835Z,99.90
2022-09-30T17:29:30.833Z,99.90
2022-09-30T17:31:50.711Z,99.90
2022-09-30T17:34:18.055Z,99.90
2022-09-30T17:36:44.738Z,99.90
2022-09-30T17:39:11.479Z,99.90
2022-09-30T17:41:56.927Z,99.90
2022-09-30T17:44:24.516Z,99.90
2022-09-30T17:46:52.468Z,99.90
2022-09-30T17:49:24.021Z,99.90
2022-09-30T17:51:51.017Z,99.90
2022-09-30T17:54:17.736Z,99.90
2022-09-30T17:56:44.525Z,99.90
2022-09-30T17:59:11.205Z,99.90
2022-09-30T18:01:40.367Z,99.90
2022-09-30T18:04:07.281Z,99.90
2022-09-30T18:06:34.538Z,99.90
2022-09-30T18:09:01.534Z,99.90
2022-09-30T18:11:31.506Z,99.90
2022-09-30T18:13:59.899Z,99.90
2022-09-30T18:16:30.639Z,99.90
2022-09-30T18:19:01.282Z,99.90
2022-09-30T18:21:28.292Z,99.90
2022-09-30T18:23:57.406Z,99.90
2022-09-30T18:26:24.909Z,99.90
2022-09-30T18:28:56.128Z,99.90
2022-09-30T18:31:30.924Z,99.90
2022-09-30T18:33:58.463Z,99.90
2022-09-30T18:36:26.535Z,99.90
2022-09-30T18:38:53.891Z,99.90
2022-09-30T18:41:20.825Z,99.90
2022-09-30T18:43:50.191Z,99.90
2022-09-30T18:46:20.500Z,99.90
2022-09-30T18:48:50.793Z,99.90
2022-09-30T18:51:18.819Z,99.90
2022-09-30T18:53:45.821Z,99.90
2022-09-30T18:56:12.955Z,99.90
2022-09-30T18:58:40.307Z,99.90
2022-09-30T19:01:07.943Z,99.90
2022-09-30T19:03:36.527Z,99.90
2022-09-30T19:06:06.999Z,99.90
2022-09-30T19:08:34.636Z,99.90
2022-09-30T19:11:12.951Z,99.90
2022-09-30T19:13:43.223Z,99.90
2022-09-30T19:16:11.203Z,99.90
2022-09-30T19:18:39.447Z,99.90
2022-09-30T19:21:11.480Z,99.90
2022-09-30T19:23:39.139Z,99.90
2022-09-30T19:26:06.619Z,99.90
2022-09-30T19:28:36.643Z,99.90
2022-09-30T19:31:15.398Z,99.90
2022-09-30T19:33:55.217Z,99.90
2022-09-30T19:36:24.040Z,99.90
2022-09-30T19:38:52.860Z,99.90
2022-09-30T19:41:24.098Z,99.90
2022-09-30T19:43:51.091Z,99.90
2022-09-30T19:46:20.547Z,99.90
2022-09-30T19:48:47.462Z,99.90
2022-09-30T19:51:16.830Z,99.90
2022-09-30T19:53:47.938Z,99.90
2022-09-30T19:56:21.491Z,99.90
2022-09-30T19:58:52.264Z,99.90
2022-09-30T20:01:24.633Z,99.90
2022-09-30T20:03:51.687Z,99.90
2022-09-30T20:06:18.570Z,99.90
2022-09-30T20:08:51.025Z,99.90
2022-09-30T20:11:19.947Z,99.90
2022-09-30T20:13:49.131Z,99.90
2022-09-30T20:16:16.163Z,99.90
2022-09-30T20:18:43.289Z,99.90
2022-09-30T20:21:10.036Z,99.90
2022-09-30T20:23:39.079Z,99.90
2022-09-30T20:26:06.680Z,99.90
2022-09-30T20:28:33.531Z,99.90
2022-09-30T20:31:05.155Z,99.90
2022-09-30T20:33:32.003Z,99.90
2022-09-30T20:35:59.513Z,99.90
2022-09-30T20:38:26.389Z,99.90
2022-09-30T20:40:56.935Z,99.90
2022-09-30T20:43:28.852Z,99.90
2022-09-30T20:45:56.728Z,99.90
2022-09-30T20:48:23.572Z,99.90
2022-09-30T20:50:50.391Z,99.90
2022-09-30T20:53:17.481Z,99.90
2022-09-30T20:55:44.450Z,99.90
2022-09-30T20:58:12.157Z,99.90
2022-09-30T21:00:39.806Z,99.90
2022-09-30T21:03:10.554Z,99.90
2022-09-30T21:05:37.803Z,99.90
2022-09-30T21:08:04.856Z,99.90
2022-09-30T21:10:31.958Z,99.90
2022-09-30T21:13:00.547Z,99.90
2022-09-30T21:15:28.162Z,99.90
2022-09-30T21:17:55.184Z,99.90
2022-09-30T21:20:22.307Z,99.90
2022-09-30T21:22:49.310Z,99.90
2022-09-30T21:25:16.125Z,99.90
2022-09-30T21:27:45.268Z,99.90
2022-09-30T21:30:12.156Z,99.90
2022-09-30T21:32:42.625Z,99.90
2022-09-30T21:35:09.789Z,99.90
2022-09-30T21:37:37.273Z,99.90
2022-09-30T21:40:04.082Z,99.90
2022-09-30T21:42:30.858Z,99.90
2022-09-30T21:44:57.628Z,99.90
2022-09-30T21:47:24.398Z,99.90
2022-09-30T21:49:53.691Z,99.90
2022-09-30T21:52:22.091Z,99.90
2022-09-30T21:54:50.012Z,99.90
2022-09-30T21:57:16.829Z,99.90
2022-09-30T21:59:47.398Z,99.90
2022-09-30T22:02:16.606Z,99.90
2022-09-30T22:04:43.417Z,99.90
2022-09-30T22:07:10.343Z,99.90
2022-09-30T22:09:39.443Z,99.90
2022-09-30T22:12:08.661Z,99.90
2022-09-30T22:14:36.558Z,99.90
2022-09-30T22:17:04.083Z,99.90
2022-09-30T22:19:30.769Z,99.90
2022-09-30T22:21:57.703Z,99.90
2022-09-30T22:24:24.576Z,99.90
2022-09-30T22:26:52.091Z,99.90
2022-09-30T22:29:21.656Z,99.90
2022-09-30T22:31:48.901Z,99.90
2022-09-30T22:34:34.576Z,99.90
2022-09-30T22:37:20.226Z,99.90
2022-09-30T22:39:47.567Z,99.90
2022-09-30T22:42:14.294Z,99.90
2022-09-30T22:44:41.017Z,99.90
2022-09-30T22:47:08.743Z,99.90
2022-09-30T22:49:36.167Z,99.90
2022-09-30T22:52:03.754Z,99.90
2022-09-30T22:54:30.585Z,99.90
2022-09-30T22:56:59.142Z,99.90
2022-09-30T22:59:25.948Z,99.90
2022-09-30T23:01:52.648Z,99.90
2022-09-30T23:04:19.638Z,99.90
2022-09-30T23:06:50.494Z,99.90
2022-09-30T23:09:17.618Z,99.90
2022-09-30T23:11:46.000Z,99.90
2022-09-30T23:14:13.160Z,99.90
2022-09-30T23:16:40.197Z,99.90
2022-09-30T23:19:07.004Z,99.90
2022-09-30T23:21:34.376Z,99.90
2022-09-30T23:24:01.945Z,99.90
2022-09-30T23:26:29.704Z,99.90
2022-09-30T23:28:57.239Z,99.90
2022-09-30T23:31:24.222Z,99.90
2022-09-30T23:33:52.529Z,99.90
2022-09-30T23:36:20.660Z,99.90
2022-09-30T23:38:47.484Z,99.90
2022-09-30T23:41:14.455Z,99.90
2022-09-30T23:43:48.153Z,99.90
2022-09-30T23:46:15.893Z,99.90
2022-09-30T23:48:42.699Z,99.90
2022-09-30T23:51:09.456Z,99.90
2022-09-30T23:53:36.133Z,99.90
2022-09-30T23:56:04.630Z,99.90
2022-09-30T23:58:35.008Z,99.90
